UKDR/KWG METAR and TAF weather

Enter ICAO airport designator
Station Type Date Time Source
UKDR METAR 2020/09/22 06:30 UTC NOAA

UKDR 220630Z VRB01MPS CAVOK 17/00 Q1024 R36/09//70 NOSIG


Station Type Date Time Source
UKDR Decoded METAR 2020/09/22 06:30 UTC NOAA

Krivyy Rih / Dnipropetrovs'k, Ukraine (UKDR) 48-03N 033-13-12E
Sep 22, 2020 - 02:30 AM EDT / 2020.09.22 0630 UTC
Wind: Variable at 2 MPH (2 KT):0
Visibility: greater than 7 mile(s):0
Temperature: 62 F (17 C)
Dew Point: 32 F (0 C)
Relative Humidity: 31%
Pressure (altimeter): 30.24 in. Hg (1024 hPa)
ob: UKDR 220630Z VRB01MPS CAVOK 17/00 Q1024 R36/09//70 NOSIG
cycle: 6

Station Type Date Time Source
UKDR TAF 2020/09/22 06:00 UTC NOAA

TAF UKDR 220505Z 2206/2306 VRB01MPS CAVOK
TEMPO 2207/2216 08005MPS

Example: see airport list